createdAt,value
2019-01-21T00:01:12.394Z,46.42
2019-01-21T00:03:41.707Z,42.20
2019-01-21T00:06:10.991Z,43.78
2019-01-21T00:08:40.257Z,44.83
2019-01-21T00:11:09.614Z,44.98
2019-01-21T00:13:38.887Z,47.17
2019-01-21T00:16:08.261Z,42.48
2019-01-21T00:18:37.637Z,44.75
2019-01-21T00:21:06.874Z,37.42
2019-01-21T00:23:36.203Z,41.90
2019-01-21T00:26:06.469Z,45.50
2019-01-21T00:28:35.755Z,46.55
2019-01-21T00:31:05.088Z,41.08
2019-01-21T00:33:34.461Z,41.63
2019-01-21T00:36:03.739Z,43.55
2019-01-21T00:38:33.031Z,39.95
2019-01-21T00:41:02.358Z,43.05
2019-01-21T00:43:31.630Z,39.27
2019-01-21T00:46:00.927Z,43.55
2019-01-21T00:48:30.258Z,47.00
2019-01-21T00:50:59.520Z,41.63
2019-01-21T00:53:28.836Z,43.52
2019-01-21T00:55:58.174Z,41.63
2019-01-21T00:58:27.534Z,46.68
2019-01-21T01:00:56.862Z,40.08
2019-01-21T01:03:26.143Z,45.88
2019-01-21T01:05:55.463Z,48.95
2019-01-21T01:08:24.766Z,45.80
2019-01-21T01:10:54.037Z,48.75
2019-01-21T01:13:23.370Z,45.85
2019-01-21T01:15:52.630Z,43.52
2019-01-21T01:18:21.942Z,45.73
2019-01-21T01:20:51.274Z,45.17
2019-01-21T01:23:20.534Z,41.33
2019-01-21T01:25:49.873Z,39.42
2019-01-21T01:28:19.167Z,48.48
2019-01-21T01:30:48.797Z,44.25
2019-01-21T01:33:18.145Z,46.60
2019-01-21T01:35:47.481Z,51.35
2019-01-21T01:38:16.741Z,44.48
2019-01-21T01:40:45.978Z,47.40
2019-01-21T01:43:15.407Z,52.70
2019-01-21T01:45:44.766Z,42.03
2019-01-21T01:48:14.042Z,48.55
2019-01-21T01:50:43.373Z,50.73
2019-01-21T01:53:13.062Z,48.10
2019-01-21T01:55:42.355Z,47.08
2019-01-21T01:58:11.738Z,40.28
2019-01-21T02:00:41.078Z,41.30
2019-01-21T02:03:10.374Z,44.55
2019-01-21T02:05:39.675Z,44.53
2019-01-21T02:08:08.944Z,42.50
2019-01-21T02:10:38.186Z,43.80
2019-01-21T02:13:07.461Z,56.90
2019-01-21T02:15:36.778Z,50.83
2019-01-21T02:18:06.100Z,44.58
2019-01-21T02:20:35.382Z,48.28
2019-01-21T02:23:05.942Z,39.20
2019-01-21T02:25:46.302Z,41.55
2019-01-21T02:28:40.614Z,46.68
2019-01-21T02:31:47.690Z,53.00
2019-01-21T02:34:26.367Z,43.00
2019-01-21T02:37:27.862Z,41.30
2019-01-21T02:40:12.016Z,36.50
2019-01-21T02:43:22.694Z,40.67
2019-01-21T02:46:23.626Z,40.75
2019-01-21T02:49:15.363Z,39.20
2019-01-21T02:52:18.010Z,46.80
2019-01-21T02:55:08.646Z,45.63
2019-01-21T02:58:16.690Z,46.30
2019-01-21T03:01:02.746Z,44.38
2019-01-21T03:04:21.294Z,40.35
2019-01-21T03:07:02.574Z,39.03
2019-01-21T03:10:03.275Z,43.52
2019-01-21T03:12:58.490Z,36.98
2019-01-21T03:15:53.523Z,43.42
2019-01-21T03:19:03.239Z,46.00
2019-01-21T03:22:38.060Z,39.08
2019-01-21T03:26:03.065Z,34.55
2019-01-21T03:29:08.842Z,37.40
2019-01-21T03:32:10.264Z,37.03
2019-01-21T03:35:15.763Z,40.03
2019-01-21T03:38:21.295Z,38.88
2019-01-21T03:41:15.150Z,44.70
2019-01-21T03:44:24.215Z,38.83
2019-01-21T03:47:34.263Z,43.73
2019-01-21T03:50:36.082Z,40.10
2019-01-21T03:53:54.045Z,41.92
2019-01-21T03:56:56.644Z,35.52
2019-01-21T03:59:47.434Z,39.40
2019-01-21T04:02:41.911Z,40.17
2019-01-21T04:05:23.518Z,49.42
2019-01-21T04:08:36.634Z,39.95
2019-01-21T04:11:39.533Z,48.60
2019-01-21T04:14:54.705Z,46.75
2019-01-21T04:17:53.883Z,38.67
2019-01-21T04:21:06.399Z,43.92
2019-01-21T04:24:17.002Z,47.05
2019-01-21T04:27:36.192Z,47.58
2019-01-21T04:30:33.834Z,47.48
2019-01-21T04:33:40.499Z,45.67
2019-01-21T04:36:20.226Z,44.58
2019-01-21T04:39:21.087Z,41.35
2019-01-21T04:42:19.386Z,36.70
2019-01-21T04:45:16.051Z,39.00
2019-01-21T04:48:23.656Z,45.28
2019-01-21T04:51:19.462Z,45.38
2019-01-21T04:54:15.408Z,40.92
2019-01-21T04:57:26.828Z,41.00
2019-01-21T05:00:17.759Z,42.80
2019-01-21T05:03:06.361Z,41.83
2019-01-21T05:06:00.688Z,34.35
2019-01-21T05:09:13.926Z,36.50
2019-01-21T05:12:27.470Z,37.28
2019-01-21T05:15:33.011Z,42.62
2019-01-21T05:18:20.032Z,38.17
2019-01-21T05:21:47.711Z,45.12
2019-01-21T05:24:38.425Z,44.08
2019-01-21T05:27:49.011Z,43.65
2019-01-21T05:30:48.883Z,41.73
2019-01-21T05:33:59.771Z,45.52
2019-01-21T05:36:57.713Z,47.13
2019-01-21T05:40:09.112Z,45.35
2019-01-21T05:43:05.491Z,45.58
2019-01-21T05:46:00.238Z,50.25
2019-01-21T05:49:03.253Z,55.83
2019-01-21T05:52:37.443Z,46.40
2019-01-21T05:55:46.448Z,43.42
2019-01-21T05:58:52.951Z,45.30
2019-01-21T06:01:57.746Z,49.75
2019-01-21T06:04:50.942Z,46.08
2019-01-21T06:08:12.246Z,45.30
2019-01-21T06:11:04.686Z,45.70
2019-01-21T06:13:57.198Z,44.20
2019-01-21T06:16:52.278Z,43.92
2019-01-21T06:19:58.817Z,45.40
2019-01-21T06:22:39.303Z,47.33
2019-01-21T06:26:01.584Z,54.13
2019-01-21T06:29:18.210Z,55.48
2019-01-21T06:32:47.015Z,49.35
2019-01-21T06:36:00.264Z,51.30
2019-01-21T06:39:23.071Z,52.15
2019-01-21T06:42:26.434Z,52.75
2019-01-21T06:45:47.638Z,41.40
2019-01-21T06:49:15.752Z,54.30
2019-01-21T06:52:19.590Z,50.40
2019-01-21T06:55:18.543Z,45.48
2019-01-21T06:58:24.036Z,52.48
2019-01-21T07:01:39.832Z,49.40
2019-01-21T07:04:36.729Z,45.90
2019-01-21T07:07:30.490Z,51.88
2019-01-21T07:10:22.250Z,51.23
2019-01-21T07:13:01.982Z,47.35
2019-01-21T07:15:47.790Z,50.90
2019-01-21T07:19:19.452Z,54.08
2019-01-21T07:22:27.012Z,51.02
2019-01-21T07:25:32.899Z,50.63
2019-01-21T07:28:39.321Z,57.13
2019-01-21T07:31:39.458Z,56.23
2019-01-21T07:34:40.317Z,49.55
2019-01-21T07:37:53.357Z,52.35
2019-01-21T07:41:09.874Z,48.60
2019-01-21T07:44:06.970Z,54.50
2019-01-21T07:47:13.363Z,49.30
2019-01-21T07:50:11.975Z,51.18
2019-01-21T07:53:16.325Z,44.73
2019-01-21T07:56:36.799Z,51.42
2019-01-21T07:59:25.382Z,45.95
2019-01-21T08:02:35.075Z,39.38
2019-01-21T08:05:57.193Z,46.05
2019-01-21T08:08:52.195Z,51.20
2019-01-21T08:11:46.860Z,56.42
2019-01-21T08:14:46.332Z,45.85
2019-01-21T08:18:02.743Z,44.88
2019-01-21T08:20:58.893Z,52.53
2019-01-21T08:23:47.246Z,45.28
2019-01-21T08:26:44.360Z,46.10
2019-01-21T08:29:36.024Z,43.15
2019-01-21T08:32:54.478Z,43.35
2019-01-21T08:36:03.669Z,44.18
2019-01-21T08:39:10.136Z,36.55
2019-01-21T08:42:08.353Z,36.95
2019-01-21T08:45:03.614Z,36.88
2019-01-21T08:48:22.376Z,31.17
2019-01-21T08:51:02.767Z,31.87
2019-01-21T08:54:15.901Z,34.23
2019-01-21T08:57:10.461Z,33.18
2019-01-21T09:00:11.043Z,35.15
2019-01-21T09:03:14.600Z,28.38
2019-01-21T09:06:26.850Z,33.40
2019-01-21T09:09:18.201Z,32.23
2019-01-21T09:12:44.085Z,29.67
2019-01-21T09:15:47.661Z,33.48
2019-01-21T09:18:48.095Z,42.62
2019-01-21T09:22:04.362Z,34.35
2019-01-21T09:25:20.949Z,33.88
2019-01-21T09:28:14.557Z,30.12
2019-01-21T09:31:26.639Z,29.72
2019-01-21T09:34:43.294Z,35.25
2019-01-21T09:37:58.730Z,32.28
2019-01-21T09:40:57.852Z,35.78
2019-01-21T09:43:52.201Z,38.00
2019-01-21T09:46:49.757Z,33.88
2019-01-21T09:49:17.440Z,34.73
2019-01-21T09:51:59.556Z,36.00
2019-01-21T09:54:29.849Z,33.55
2019-01-21T09:57:01.394Z,31.52
2019-01-21T09:59:33.772Z,29.02
2019-01-21T10:02:07.265Z,30.88
2019-01-21T10:04:54.225Z,28.52
2019-01-21T10:07:31.876Z,34.13
2019-01-21T10:10:13.847Z,29.43
2019-01-21T10:13:11.987Z,30.85
2019-01-21T10:16:19.480Z,30.17
2019-01-21T10:19:25.693Z,36.50
2019-01-21T10:22:23.376Z,35.07
2019-01-21T10:25:15.518Z,32.27
2019-01-21T10:28:38.374Z,31.53
2019-01-21T10:31:40.562Z,33.20
2019-01-21T10:35:01.438Z,32.40
2019-01-21T10:38:10.695Z,34.27
2019-01-21T10:41:20.689Z,38.03
2019-01-21T10:44:33.718Z,41.17
2019-01-21T10:47:47.270Z,41.20
2019-01-21T10:51:00.926Z,39.40
2019-01-21T10:54:01.498Z,35.57
2019-01-21T10:57:07.988Z,31.30
2019-01-21T11:00:07.410Z,32.30
2019-01-21T11:03:07.337Z,27.87
2019-01-21T11:06:03.755Z,29.77
2019-01-21T11:08:58.315Z,40.70
2019-01-21T11:12:07.651Z,27.97
2019-01-21T11:14:53.558Z,32.03
2019-01-21T11:17:47.514Z,28.40
2019-01-21T11:21:03.138Z,31.80
2019-01-21T11:24:24.299Z,31.20
2019-01-21T11:27:10.935Z,35.67
2019-01-21T11:29:48.090Z,34.87
2019-01-21T11:33:00.662Z,36.23
2019-01-21T11:35:56.280Z,34.63
2019-01-21T11:38:46.823Z,33.83
2019-01-21T11:42:20.318Z,41.97
2019-01-21T11:45:18.965Z,38.43
2019-01-21T11:48:32.291Z,38.97
2019-01-21T11:51:52.143Z,32.17
2019-01-21T11:55:01.224Z,30.30
2019-01-21T11:58:11.950Z,30.73
2019-01-21T12:01:33.370Z,31.60
2019-01-21T12:04:18.530Z,29.90
2019-01-21T12:07:20.108Z,31.13
2019-01-21T12:10:18.830Z,30.43
2019-01-21T12:13:10.609Z,29.37
2019-01-21T12:16:15.178Z,28.33
2019-01-21T12:19:28.674Z,32.40
2019-01-21T12:22:40.451Z,31.70
2019-01-21T12:25:34.701Z,32.70
2019-01-21T12:28:47.445Z,32.00
2019-01-21T12:31:51.519Z,35.83
2019-01-21T12:34:43.371Z,36.17
2019-01-21T12:37:23.234Z,36.13
2019-01-21T12:40:33.842Z,33.50
2019-01-21T12:43:32.454Z,31.20
2019-01-21T12:46:20.312Z,32.40
2019-01-21T12:49:20.696Z,31.27
2019-01-21T12:52:19.435Z,35.63
2019-01-21T12:55:14.921Z,31.50
2019-01-21T12:58:29.985Z,35.97
2019-01-21T13:01:41.942Z,29.33
2019-01-21T13:04:48.991Z,32.20
2019-01-21T13:07:45.569Z,31.33
2019-01-21T13:10:51.101Z,33.07
2019-01-21T13:14:12.763Z,25.50
2019-01-21T13:17:18.916Z,35.40
2019-01-21T13:20:30.670Z,30.30
2019-01-21T13:23:18.912Z,28.17
2019-01-21T13:26:37.855Z,31.80
2019-01-21T13:29:27.954Z,25.90
2019-01-21T13:32:30.238Z,29.33
2019-01-21T13:35:42.466Z,28.53
2019-01-21T13:39:04.550Z,31.20
2019-01-21T13:41:55.462Z,34.33
2019-01-21T13:44:54.659Z,36.83
2019-01-21T13:47:43.524Z,29.10
2019-01-21T13:50:37.050Z,28.50
2019-01-21T13:53:20.774Z,32.97
2019-01-21T13:56:08.310Z,30.70
2019-01-21T13:59:29.875Z,31.00
2019-01-21T14:02:13.713Z,27.20
2019-01-21T14:05:19.910Z,27.93
2019-01-21T14:08:34.376Z,25.53
2019-01-21T14:11:37.878Z,28.10
2019-01-21T14:14:47.611Z,30.67
2019-01-21T14:17:53.846Z,35.70
2019-01-21T14:21:03.783Z,31.75
2019-01-21T14:23:52.599Z,30.87
2019-01-21T14:26:42.091Z,27.00
2019-01-21T14:29:21.304Z,30.52
2019-01-21T14:32:27.690Z,32.67
2019-01-21T14:35:37.738Z,24.67
2019-01-21T14:38:20.934Z,22.07
2019-01-21T14:41:38.311Z,21.87
2019-01-21T14:44:42.850Z,26.23
2019-01-21T14:47:52.068Z,22.82
2019-01-21T14:50:50.179Z,23.30
2019-01-21T14:53:38.891Z,30.08
2019-01-21T14:56:29.676Z,27.45
2019-01-21T14:59:31.158Z,27.07
2019-01-21T15:02:34.204Z,26.97
2019-01-21T15:05:50.014Z,30.12
2019-01-21T15:09:14.293Z,27.13
2019-01-21T15:12:40.979Z,32.28
2019-01-21T15:15:44.237Z,28.92
2019-01-21T15:21:45.302Z,25.80
2019-01-21T15:24:33.766Z,26.57
2019-01-21T15:27:30.398Z,33.33
2019-01-21T15:30:35.612Z,28.73
2019-01-21T15:33:47.318Z,25.80
2019-01-21T15:36:53.510Z,27.77
2019-01-21T15:40:08.984Z,33.65
2019-01-21T15:42:46.508Z,33.60
2019-01-21T15:45:51.798Z,33.88
2019-01-21T15:48:33.089Z,32.95
2019-01-21T15:51:34.846Z,37.03
2019-01-21T15:54:56.834Z,35.15
2019-01-21T15:58:05.522Z,41.83
2019-01-21T16:01:15.838Z,38.53
2019-01-21T16:03:53.579Z,35.23
2019-01-21T16:06:53.638Z,39.25
2019-01-21T16:10:00.318Z,38.28
2019-01-21T16:13:21.895Z,37.60
2019-01-21T16:16:32.424Z,40.90
2019-01-21T16:19:05.474Z,46.55
2019-01-21T16:22:16.898Z,41.35
2019-01-21T16:25:07.965Z,40.15
2019-01-21T16:28:21.029Z,37.98
2019-01-21T16:30:57.661Z,42.23
2019-01-21T16:34:14.102Z,38.58
2019-01-21T16:37:27.698Z,37.98
2019-01-21T16:40:28.027Z,40.73
2019-01-21T16:42:57.430Z,38.02
2019-01-21T16:45:26.680Z,35.63
2019-01-21T16:47:56.005Z,31.80
2019-01-21T16:50:25.270Z,31.12
2019-01-21T16:52:54.610Z,37.33
2019-01-21T16:55:23.990Z,38.53
2019-01-21T16:57:53.281Z,43.28
2019-01-21T17:00:22.618Z,39.70
2019-01-21T17:02:52.090Z,43.28
2019-01-21T17:05:21.407Z,42.50
2019-01-21T17:07:50.755Z,38.60
2019-01-21T17:10:19.867Z,42.50
2019-01-21T17:12:49.215Z,49.10
2019-01-21T17:15:18.622Z,45.73
2019-01-21T17:17:47.915Z,45.55
2019-01-21T17:20:19.501Z,43.15
2019-01-21T17:22:48.778Z,45.35
2019-01-21T17:25:18.115Z,46.23
2019-01-21T17:27:47.379Z,38.60
2019-01-21T17:30:16.814Z,42.23
2019-01-21T17:32:46.070Z,43.33
2019-01-21T17:35:15.686Z,47.33
2019-01-21T17:37:44.998Z,39.65
2019-01-21T17:40:16.171Z,44.90
2019-01-21T17:42:45.579Z,41.55
2019-01-21T17:45:17.305Z,43.73
2019-01-21T17:47:46.594Z,43.70
2019-01-21T17:50:16.998Z,41.68
2019-01-21T17:52:46.330Z,41.15
2019-01-21T17:55:15.863Z,41.88
2019-01-21T17:57:45.150Z,39.42
2019-01-21T18:00:18.950Z,45.25
2019-01-21T18:02:48.227Z,40.25
2019-01-21T18:05:17.603Z,39.08
2019-01-21T18:07:46.895Z,41.05
2019-01-21T18:10:17.706Z,41.53
2019-01-21T18:12:49.296Z,43.65
2019-01-21T18:15:18.614Z,44.98
2019-01-21T18:17:48.674Z,51.98
2019-01-21T18:20:23.666Z,49.25
2019-01-21T18:22:52.942Z,46.08
2019-01-21T18:25:22.290Z,48.17
2019-01-21T18:27:51.586Z,46.95
2019-01-21T18:30:25.407Z,48.98
2019-01-21T18:32:55.154Z,48.60
2019-01-21T18:35:24.448Z,48.45
2019-01-21T18:37:54.821Z,56.23
2019-01-21T18:40:24.134Z,58.42
2019-01-21T18:42:53.406Z,52.95
2019-01-21T18:45:28.718Z,51.40
2019-01-21T18:48:00.550Z,55.15
2019-01-21T18:50:29.890Z,50.88
2019-01-21T18:52:59.381Z,55.05
2019-01-21T18:55:28.798Z,51.45
2019-01-21T18:58:00.463Z,63.52
2019-01-21T19:00:31.939Z,57.05
2019-01-21T19:03:01.799Z,60.00
2019-01-21T19:05:35.876Z,57.73
2019-01-21T19:08:07.023Z,63.85
2019-01-21T19:10:39.337Z,54.77
2019-01-21T19:13:08.778Z,61.30
2019-01-21T19:15:57.921Z,55.43
2019-01-21T19:18:27.170Z,60.88
2019-01-21T19:21:00.235Z,64.75
2019-01-21T19:23:29.544Z,64.72
2019-01-21T19:25:58.859Z,56.68
2019-01-21T19:28:28.214Z,63.95
2019-01-21T19:30:57.589Z,61.40
2019-01-21T19:33:29.564Z,65.28
2019-01-21T19:36:01.457Z,61.75
2019-01-21T19:38:36.024Z,58.40
2019-01-21T19:41:09.189Z,59.63
2019-01-21T19:43:42.886Z,62.40
2019-01-21T19:46:17.020Z,58.52
2019-01-21T19:49:35.625Z,56.45
2019-01-21T19:52:05.514Z,69.35
2019-01-21T19:54:39.044Z,60.10
2019-01-21T19:57:20.260Z,63.20
2019-01-21T19:59:51.786Z,67.20
2019-01-21T20:02:23.523Z,77.42
2019-01-21T20:04:56.223Z,67.30
2019-01-21T20:07:25.565Z,62.33
2019-01-21T20:09:56.357Z,62.70
2019-01-21T20:12:30.235Z,63.85
2019-01-21T20:14:59.639Z,65.65
2019-01-21T20:17:28.980Z,67.92
2019-01-21T20:19:58.669Z,68.87
2019-01-21T20:22:29.113Z,60.80
2019-01-21T20:24:59.537Z,71.80
2019-01-21T20:27:28.983Z,69.22
2019-01-21T20:29:58.380Z,66.28
2019-01-21T20:32:28.202Z,59.98
2019-01-21T20:34:57.591Z,65.62
2019-01-21T20:37:26.908Z,65.30
2019-01-21T20:39:56.447Z,80.25
2019-01-21T20:42:25.851Z,64.12
2019-01-21T20:44:55.315Z,60.83
2019-01-21T20:47:24.719Z,66.97
2019-01-21T20:49:54.235Z,65.37
2019-01-21T20:52:23.695Z,52.73
2019-01-21T20:54:53.179Z,53.68
2019-01-21T20:57:26.090Z,56.77
2019-01-21T20:59:55.549Z,61.00
2019-01-21T21:02:24.895Z,63.55
2019-01-21T21:04:56.819Z,63.42
2019-01-21T21:07:26.637Z,62.50
2019-01-21T21:09:56.927Z,58.20
2019-01-21T21:12:26.827Z,60.38
2019-01-21T21:14:56.556Z,58.87
2019-01-21T21:17:26.062Z,56.95
2019-01-21T21:19:55.752Z,60.15
2019-01-21T21:22:26.323Z,57.67
2019-01-21T21:24:55.604Z,58.68
2019-01-21T21:27:26.718Z,52.33
2019-01-21T21:29:58.170Z,60.78
2019-01-21T21:32:29.615Z,57.48
2019-01-21T21:34:58.997Z,56.90
2019-01-21T21:37:28.369Z,53.52
2019-01-21T21:39:57.948Z,51.68
2019-01-21T21:42:27.255Z,54.95
2019-01-21T21:44:56.611Z,50.35
2019-01-21T21:47:25.918Z,56.68
2019-01-21T21:49:55.233Z,58.55
2019-01-21T21:52:27.843Z,57.03
2019-01-21T21:54:58.327Z,54.48
2019-01-21T21:57:27.692Z,51.75
2019-01-21T21:59:57.162Z,52.17
2019-01-21T22:02:26.424Z,48.60
2019-01-21T22:04:56.020Z,52.50
2019-01-21T22:07:25.399Z,60.00
2019-01-21T22:09:54.657Z,46.83
2019-01-21T22:12:23.971Z,47.05
2019-01-21T22:14:53.279Z,47.43
2019-01-21T22:17:22.944Z,43.80
2019-01-21T22:19:53.252Z,50.52
2019-01-21T22:22:23.158Z,48.92
2019-01-21T22:24:56.917Z,54.65
2019-01-21T22:27:34.230Z,53.05
2019-01-21T22:30:03.529Z,49.30
2019-01-21T22:32:32.820Z,61.30
2019-01-21T22:35:02.111Z,51.90
2019-01-21T22:37:31.450Z,52.53
2019-01-21T22:40:01.025Z,56.73
2019-01-21T22:42:30.318Z,54.18
2019-01-21T22:44:59.662Z,53.05
2019-01-21T22:47:29.205Z,49.13
2019-01-21T22:49:58.465Z,51.73
2019-01-21T22:52:27.994Z,57.65
2019-01-21T22:54:57.371Z,51.92
2019-01-21T22:57:26.719Z,50.60
2019-01-21T22:59:56.086Z,49.48
2019-01-21T23:02:25.414Z,56.65
2019-01-21T23:04:54.891Z,50.40
2019-01-21T23:07:24.283Z,52.70
2019-01-21T23:09:53.652Z,52.13
2019-01-21T23:12:23.350Z,52.55
2019-01-21T23:14:52.703Z,55.10
2019-01-21T23:17:22.061Z,51.88
2019-01-21T23:19:51.351Z,45.65
2019-01-21T23:22:20.634Z,55.00
2019-01-21T23:24:49.954Z,51.55
2019-01-21T23:27:19.274Z,58.08
2019-01-21T23:29:48.934Z,52.03
2019-01-21T23:32:18.262Z,56.05
2019-01-21T23:34:47.615Z,53.98
2019-01-21T23:37:19.293Z,54.35
2019-01-21T23:39:48.643Z,51.55
2019-01-21T23:42:18.506Z,47.78
2019-01-21T23:44:47.867Z,56.80
2019-01-21T23:47:17.158Z,51.02
2019-01-21T23:49:46.393Z,51.15
2019-01-21T23:52:15.765Z,51.45
2019-01-21T23:54:45.055Z,48.50
2019-01-21T23:57:14.616Z,56.20
2019-01-21T23:59:44.186Z,50.05
